Mantorville, MN (55955)

6:57 PM CDT on July 30, 2016 (GMT -0500)
South Side KMHS | | Change Station
Active Advisory: Special Statement Active Notice: Local Storm Report

Elev 1253 ft 44.04 °N, 92.75 °W | Updated 12 minutes ago

Clear
Clear
71.4 °F
Feels Like 70 °F
N
0.0
Wind Variable Wind from ESE

Today
High -- | Low -- °F
--% Chance of Precip.
Yesterday
High -- | Low -- °F
Precip. -- in
Pressure 30.00 in
Visibility 10.0 miles
Clouds Clear
Heat Index 70 °F
Dew Point 67 °F
Humidity 85%
Rainfall 0.45 in
Snow Depth Not available.
5:57 AM 8:36 PM
Waning Crescent, 10% visible
METAR KTOB 302354Z AUTO 17004KT 10SM CLR 22/19 A3000 RMK AO2 P0030
Pressure 30.00 in
Visibility 10.0 miles
Clouds Clear
Heat Index 70 °F
Dew Point 67 °F
Humidity 85%
Rainfall 0.45 in
Snow Depth Not available.
5:57 AM 8:36 PM
Waning Crescent, 10% visible
METAR KTOB 302354Z AUTO 17004KT 10SM CLR 22/19 A3000 RMK AO2 P0030

10-Day Weather Forecast

Almanac

Astronomy

Jul. 30, 2016 Rise Set
Actual Time
Civil Twilight
Nautical Twilight
Astronomical Twilight
Moon
Length of Visible Light
Length of Day
Tomorrow will be .
, % of the Moon is Illuminated

Today's Extremes

State Highs State Lows

Community

WunderPhotos

Upload Photos

1,928,680 photos uploaded!

WunderBlog® & News

Nearby

Air Quality

  Air Quality AQ Index Pollutant
Not available.

Snow Depth

Station Depth Elevation

Earthquake Activity

City Distance Mag. Time & Date
Minimum magnitude displayed is 2.5.

Coastal Water Temperatures

Place Temperature

Stations

Nearby Weather Stations

Station Location Temp. Windchill Dew Point Humidity Wind Precip. Elev Updated Type
                   

Watches & Warnings

Special Statement
Issued: 5:21 PM CDT Jul. 30, 2016 – National Weather Service

... Conditions favorable for funnel clouds late this afternoon...

Isolated showers and thunderstorms are expected across portions of
southeast Minnesota into the early evening hours. Atmospheric
conditions will be favorable for the development of funnel clouds
with any of these showers and storms.

These funnels are typically brief... drop only a few hundred feet
below the cloud base... and rarely touch the ground. However... if a
funnel is spotted... please report it to the National Weather
Service and be prepared to move to a place of safety should a
funnel approach the ground.


Rogers


521 PM CDT Sat Jul 30 2016

... Conditions favorable for funnel clouds late this afternoon...

Isolated showers and thunderstorms are expected across portions of
southeast Minnesota into the early evening hours. Atmospheric
conditions will be favorable for the development of funnel clouds
with any of these showers and storms.

These funnels are typically brief... drop only a few hundred feet
below the cloud base... and rarely touch the ground. However... if a
funnel is spotted... please report it to the National Weather
Service and be prepared to move to a place of safety should a
funnel approach the ground.


Rogers